Time;durP1;ratioP1;P1;durP2;ratioP2;P2;SDS_P1;SDS_P2;PMS_P1;PMS_P2;Temp;Humidity;BMP_temperature;BMP_pressure;BME280_temperature;BME280_humidity;BME280_pressure;Samples;Min_cycle;Max_cycle;Signal;HPM_P1;HPM_P2
2021/08/23 00:01:36;;;;;;;43.92;19.60;;;16.70;99.90;;;;;;4993469;28;20057;-45
2021/08/23 00:04:02;;;;;;;47.47;20.05;;;16.80;99.90;;;;;;4993354;28;20038;-43
2021/08/23 00:06:28;;;;;;;46.40;22.08;;;16.80;99.90;;;;;;4993506;28;20022;-42
2021/08/23 00:08:53;;;;;;;56.97;23.92;;;16.80;99.90;;;;;;4992264;28;20113;-44
2021/08/23 00:11:19;;;;;;;37.80;19.70;;;16.80;99.90;;;;;;4993457;28;20030;-43
2021/08/23 00:13:44;;;;;;;45.10;23.65;;;16.80;99.90;;;;;;4993307;28;20049;-43
2021/08/23 00:16:10;;;;;;;51.10;23.85;;;16.80;99.90;;;;;;4993370;28;20045;-45
2021/08/23 00:18:35;;;;;;;46.58;23.52;;;16.80;99.90;;;;;;4993328;28;20041;-44
2021/08/23 00:21:02;;;;;;;42.28;20.05;;;16.80;99.90;;;;;;4993252;28;20029;-42
2021/08/23 00:23:34;;;;;;;44.13;19.50;;;16.80;99.90;;;;;;4992280;28;20034;-45
2021/08/23 00:26:00;;;;;;;43.30;17.73;;;16.80;99.90;;;;;;4993054;28;20018;-44
2021/08/23 00:28:26;;;;;;;47.35;19.42;;;16.90;99.90;;;;;;4993301;28;20022;-45
2021/08/23 00:30:51;;;;;;;47.65;19.15;;;16.90;99.90;;;;;;4993136;28;20105;-44
2021/08/23 00:33:17;;;;;;;48.00;19.98;;;16.90;99.90;;;;;;4994033;28;20102;-42
2021/08/23 00:35:43;;;;;;;42.33;19.90;;;16.90;99.90;;;;;;4997148;28;20031;-42
2021/08/23 00:38:09;;;;;;;39.35;19.92;;;16.90;99.90;;;;;;4996162;28;20031;-45
2021/08/23 00:40:35;;;;;;;41.85;21.00;;;16.80;99.90;;;;;;4997249;28;20033;-43
2021/08/23 00:43:01;;;;;;;35.38;18.83;;;16.80;99.90;;;;;;4997114;28;20018;-42
2021/08/23 00:45:26;;;;;;;47.60;18.75;;;16.80;99.90;;;;;;4997081;28;20065;-42
2021/08/23 00:47:52;;;;;;;47.55;22.42;;;16.80;99.90;;;;;;4997048;28;20110;-46
2021/08/23 00:50:18;;;;;;;45.30;18.20;;;16.80;99.90;;;;;;4997105;28;20025;-42
2021/08/23 00:52:44;;;;;;;44.22;20.02;;;16.80;99.90;;;;;;4995874;28;20081;-44
2021/08/23 00:55:10;;;;;;;47.20;24.42;;;16.80;99.90;;;;;;4996981;28;20027;-42
2021/08/23 00:57:40;;;;;;;45.45;22.40;;;16.80;99.90;;;;;;4996953;28;20122;-44
2021/08/23 01:00:07;;;;;;;37.35;18.52;;;16.80;99.90;;;;;;4996866;28;20045;-45
2021/08/23 01:02:37;;;;;;;53.25;27.08;;;16.80;99.90;;;;;;4996902;28;20478;-42
2021/08/23 01:05:14;;;;;;;47.17;22.58;;;16.90;99.90;;;;;;4996413;28;20406;-41
2021/08/23 01:07:54;;;;;;;43.70;21.92;;;16.90;99.90;;;;;;4995751;28;20026;-44
2021/08/23 01:10:25;;;;;;;54.90;24.08;;;16.90;99.90;;;;;;4996659;28;20077;-41
2021/08/23 01:12:52;;;;;;;40.47;20.10;;;16.90;99.90;;;;;;4996348;28;20026;-42
2021/08/23 01:15:19;;;;;;;36.20;19.35;;;16.90;99.90;;;;;;4996601;28;20482;-43
2021/08/23 01:17:44;;;;;;;47.40;25.13;;;16.90;99.90;;;;;;4996151;28;20027;-45
2021/08/23 01:20:10;;;;;;;31.55;19.48;;;16.90;99.90;;;;;;4996428;28;20038;-43
2021/08/23 01:22:44;;;;;;;33.53;18.30;;;16.90;99.90;;;;;;4995540;28;20501;-43
2021/08/23 01:25:13;;;;;;;34.17;18.30;;;16.90;99.90;;;;;;4996255;28;20030;-43
2021/08/23 01:27:45;;;;;;;34.72;19.67;;;16.90;99.90;;;;;;4996370;28;20053;-42
2021/08/23 01:30:12;;;;;;;39.42;20.75;;;16.90;99.90;;;;;;4996040;28;20022;-47
2021/08/23 01:32:39;;;;;;;31.25;18.02;;;16.90;99.90;;;;;;4996188;28;20026;-43
2021/08/23 01:35:07;;;;;;;27.60;19.42;;;16.90;99.90;;;;;;4996143;28;20027;-45
2021/08/23 01:37:35;;;;;;;36.72;18.58;;;16.90;99.90;;;;;;4995328;28;20046;-42
2021/08/23 01:40:01;;;;;;;32.95;21.88;;;16.90;99.90;;;;;;4996089;28;20102;-44
2021/08/23 01:42:27;;;;;;;27.25;16.73;;;16.90;99.90;;;;;;4996101;28;20026;-42
2021/08/23 01:44:53;;;;;;;28.52;15.90;;;16.90;99.90;;;;;;4994715;28;20027;-42
2021/08/23 01:47:18;;;;;;;31.35;17.00;;;16.90;99.90;;;;;;4996047;28;20038;-43
2021/08/23 01:49:44;;;;;;;31.17;18.15;;;16.90;99.90;;;;;;4995955;28;20097;-42
2021/08/23 01:52:12;;;;;;;28.42;18.67;;;16.90;99.90;;;;;;4995836;28;20065;-42
2021/08/23 01:54:41;;;;;;;32.85;19.10;;;16.90;99.90;;;;;;4994966;28;20030;-43
2021/08/23 01:57:07;;;;;;;27.75;19.25;;;16.90;99.90;;;;;;4995722;28;20030;-41
2021/08/23 01:59:32;;;;;;;30.80;18.30;;;16.90;99.90;;;;;;4995709;28;20034;-42
2021/08/23 02:01:58;;;;;;;26.55;18.60;;;16.90;99.90;;;;;;4995694;28;20343;-42
2021/08/23 02:04:23;;;;;;;32.88;17.48;;;16.90;99.90;;;;;;4995512;28;20050;-42
2021/08/23 02:06:49;;;;;;;33.53;20.20;;;16.90;99.90;;;;;;4995540;28;20117;-42
2021/08/23 02:09:15;;;;;;;36.17;22.33;;;16.90;99.90;;;;;;4994592;28;20027;-42
2021/08/23 02:11:41;;;;;;;29.13;17.52;;;16.90;99.90;;;;;;4995586;28;20419;-42
2021/08/23 02:14:06;;;;;;;43.97;23.92;;;16.90;99.90;;;;;;4995400;28;20145;-42
2021/08/23 02:16:32;;;;;;;38.30;25.92;;;16.90;99.90;;;;;;4995479;28;20033;-42
2021/08/23 02:18:58;;;;;;;28.67;20.75;;;16.90;99.90;;;;;;4995359;28;20042;-45
2021/08/23 02:21:23;;;;;;;30.42;20.73;;;16.90;99.90;;;;;;4995402;28;20106;-43
2021/08/23 02:23:51;;;;;;;27.23;18.92;;;16.80;99.90;;;;;;4994433;28;20039;-43
2021/08/23 02:26:17;;;;;;;30.40;20.02;;;16.80;99.90;;;;;;4995241;28;20062;-44
2021/08/23 02:28:43;;;;;;;28.25;20.55;;;16.80;99.90;;;;;;4995129;28;20111;-42
2021/08/23 02:31:08;;;;;;;27.60;19.50;;;16.80;99.90;;;;;;4995063;28;20030;-42
2021/08/23 02:33:33;;;;;;;33.20;19.48;;;16.80;99.90;;;;;;4995212;28;20110;-47
2021/08/23 02:35:59;;;;;;;22.45;17.10;;;16.70;99.90;;;;;;4995049;28;20034;-45
2021/08/23 02:38:24;;;;;;;29.25;22.55;;;16.70;99.90;;;;;;4994199;28;20065;-42
2021/08/23 02:40:50;;;;;;;23.60;17.35;;;16.70;99.90;;;;;;4994969;28;20061;-43
2021/08/23 02:43:15;;;;;;;20.83;14.32;;;16.50;99.90;;;;;;4994808;28;20043;-43
2021/08/23 02:45:41;;;;;;;19.52;15.15;;;16.50;99.90;;;;;;4994882;28;20030;-43
2021/08/23 02:48:06;;;;;;;16.88;13.55;;;16.50;99.90;;;;;;4994770;28;20034;-44
2021/08/23 02:50:32;;;;;;;19.92;13.57;;;16.40;99.90;;;;;;4994849;28;20386;-41
2021/08/23 02:52:57;;;;;;;19.02;13.50;;;16.40;99.90;;;;;;4993853;28;20105;-43
2021/08/23 02:55:23;;;;;;;14.77;11.60;;;16.40;99.90;;;;;;4994741;28;20529;-42
2021/08/23 02:57:48;;;;;;;11.93;10.60;;;16.40;99.90;;;;;;4994403;28;20033;-41
2021/08/23 03:00:14;;;;;;;15.98;10.50;;;16.30;99.90;;;;;;4994588;28;20034;-41
2021/08/23 03:02:40;;;;;;;11.85;9.95;;;16.30;99.90;;;;;;4994632;28;20052;-43
2021/08/23 03:05:05;;;;;;;11.18;8.50;;;16.30;99.90;;;;;;4994311;28;20567;-41
2021/08/23 03:07:31;;;;;;;10.13;8.60;;;16.20;99.90;;;;;;4993536;28;20039;-41
2021/08/23 03:09:57;;;;;;;11.32;7.90;;;16.10;99.90;;;;;;4994394;28;20033;-41
2021/08/23 03:12:23;;;;;;;12.05;7.35;;;16.10;99.90;;;;;;4994392;28;20421;-43
2021/08/23 03:14:48;;;;;;;6.97;6.28;;;16.00;99.90;;;;;;4994338;28;20615;-43
2021/08/23 03:17:14;;;;;;;7.35;5.65;;;16.00;99.90;;;;;;4994257;28;20058;-43
2021/08/23 03:19:39;;;;;;;7.03;5.10;;;15.90;99.90;;;;;;4994316;28;20382;-43
2021/08/23 03:22:05;;;;;;;8.00;6.70;;;15.80;99.90;;;;;;4994136;28;20556;-44
2021/08/23 03:24:30;;;;;;;9.00;6.18;;;15.80;99.90;;;;;;4993307;28;20042;-44
2021/08/23 03:26:56;;;;;;;8.18;6.15;;;15.70;99.90;;;;;;4993905;28;20033;-44
2021/08/23 03:29:22;;;;;;;12.10;9.10;;;15.60;99.90;;;;;;4994049;28;20057;-42
2021/08/23 03:31:48;;;;;;;14.38;8.52;;;15.50;99.90;;;;;;4993997;28;20026;-43
2021/08/23 03:34:15;;;;;;;14.48;9.02;;;15.40;99.90;;;;;;4993957;28;20053;-43
2021/08/23 03:36:42;;;;;;;14.07;8.27;;;15.40;99.90;;;;;;4993972;28;20038;-42
2021/08/23 03:39:09;;;;;;;12.40;8.02;;;15.30;99.90;;;;;;4992974;28;20565;-41
2021/08/23 03:41:35;;;;;;;12.80;8.80;;;15.40;99.90;;;;;;4993868;28;20030;-44
2021/08/23 03:44:01;;;;;;;15.02;9.70;;;15.40;99.90;;;;;;4993816;28;20022;-42
2021/08/23 03:46:28;;;;;;;16.17;9.65;;;15.30;99.90;;;;;;4993739;28;20030;-43
2021/08/23 03:48:54;;;;;;;17.35;9.23;;;15.30;99.90;;;;;;4993853;28;20429;-43
2021/08/23 03:51:20;;;;;;;12.77;9.02;;;15.30;99.90;;;;;;4993737;28;20022;-43
2021/08/23 03:53:45;;;;;;;11.90;8.80;;;15.20;99.90;;;;;;4992773;28;20030;-44
2021/08/23 03:56:11;;;;;;;16.45;10.52;;;15.20;99.90;;;;;;4993500;28;20036;-42
2021/08/23 03:58:36;;;;;;;18.40;10.70;;;15.20;99.90;;;;;;4993589;28;20038;-43
2021/08/23 04:01:02;;;;;;;19.55;12.23;;;15.20;99.90;;;;;;4993510;28;20487;-42
2021/08/23 04:03:29;;;;;;;20.92;10.30;;;15.20;99.90;;;;;;4993497;28;20061;-46
2021/08/23 04:05:55;;;;;;;18.63;12.30;;;15.10;99.90;;;;;;4993423;28;20030;-44
2021/08/23 04:08:21;;;;;;;23.55;15.15;;;15.10;99.90;;;;;;4991721;28;20038;-44
2021/08/23 04:10:47;;;;;;;19.55;12.10;;;15.00;99.90;;;;;;4993392;28;20543;-44
2021/08/23 04:13:13;;;;;;;19.08;12.18;;;15.00;99.90;;;;;;4993456;28;20320;-43
2021/08/23 04:15:38;;;;;;;18.38;11.73;;;15.00;99.90;;;;;;4993470;28;20085;-44
2021/08/23 04:18:04;;;;;;;20.60;12.05;;;14.90;99.90;;;;;;4993293;28;20508;-46
2021/08/23 04:20:29;;;;;;;23.17;12.23;;;14.90;99.90;;;;;;4993389;28;20035;-45
2021/08/23 04:22:55;;;;;;;17.67;12.52;;;14.80;99.90;;;;;;4992501;28;20514;-40
2021/08/23 04:25:20;;;;;;;20.05;11.57;;;14.80;99.90;;;;;;4993073;28;20026;-44
2021/08/23 04:27:46;;;;;;;17.45;11.85;;;14.80;99.90;;;;;;4993185;28;20533;-43
2021/08/23 04:30:12;;;;;;;22.13;11.95;;;14.80;99.90;;;;;;4993143;28;20034;-43
2021/08/23 04:32:37;;;;;;;21.00;11.38;;;14.80;99.90;;;;;;4993362;28;20026;-44
2021/08/23 04:35:03;;;;;;;19.27;11.82;;;14.70;99.90;;;;;;4993081;28;20030;-43
2021/08/23 04:37:28;;;;;;;15.98;10.65;;;14.70;99.90;;;;;;4992346;28;20058;-43
2021/08/23 04:39:54;;;;;;;17.80;9.95;;;14.70;99.90;;;;;;4993190;28;20367;-42
2021/08/23 04:42:19;;;;;;;14.00;9.52;;;14.60;99.90;;;;;;5022796;28;20025;-42
2021/08/23 04:44:45;;;;;;;18.27;8.85;;;14.70;99.90;;;;;;5012184;28;20045;-40
2021/08/23 04:47:11;;;;;;;14.07;9.18;;;14.60;99.90;;;;;;5012383;28;20030;-41
2021/08/23 04:49:36;;;;;;;13.65;8.13;;;14.60;99.90;;;;;;5012562;28;20149;-43
2021/08/23 04:52:02;;;;;;;11.80;8.07;;;14.60;99.90;;;;;;5012425;28;20466;-43
2021/08/23 04:54:28;;;;;;;18.60;8.88;;;14.50;99.90;;;;;;5011385;28;20022;-43
2021/08/23 04:56:53;;;;;;;14.32;8.77;;;14.50;99.90;;;;;;5012252;28;20037;-40
2021/08/23 04:59:19;;;;;;;14.18;8.52;;;14.40;99.90;;;;;;5012300;28;20037;-43
2021/08/23 05:01:45;;;;;;;13.43;8.38;;;14.50;99.90;;;;;;5012428;28;20037;-43
2021/08/23 05:04:11;;;;;;;13.88;9.93;;;14.40;99.90;;;;;;5012313;28;20210;-45
2021/08/23 05:06:36;;;;;;;15.65;8.45;;;14.50;99.90;;;;;;5012460;28;20073;-45
2021/08/23 05:09:02;;;;;;;13.35;8.85;;;14.50;99.90;;;;;;5011537;28;20034;-41
2021/08/23 05:11:29;;;;;;;13.32;8.82;;;14.50;99.90;;;;;;5012256;28;20026;-45
2021/08/23 05:13:54;;;;;;;17.30;10.18;;;14.50;99.90;;;;;;5012567;28;20018;-40
2021/08/23 05:16:20;;;;;;;14.30;8.50;;;14.50;99.90;;;;;;5012360;28;20037;-40
2021/08/23 05:18:45;;;;;;;15.30;9.15;;;14.50;99.90;;;;;;5012463;28;20068;-41
2021/08/23 05:21:11;;;;;;;13.05;7.70;;;14.50;99.90;;;;;;5016014;28;20105;-41
2021/08/23 05:23:36;;;;;;;13.35;8.00;;;14.50;99.90;;;;;;5015039;28;20470;-43
2021/08/23 05:26:07;;;;;;;17.42;7.95;;;14.60;99.90;;;;;;5015906;28;20025;-40
2021/08/23 05:28:32;;;;;;;12.20;7.85;;;14.60;99.90;;;;;;5015934;28;20025;-41
2021/08/23 05:30:58;;;;;;;9.32;6.78;;;14.60;99.90;;;;;;5015915;28;20022;-41
2021/08/23 05:33:23;;;;;;;11.85;7.90;;;14.60;99.90;;;;;;5004651;28;20054;-40
2021/08/23 05:35:49;;;;;;;13.43;7.28;;;14.70;99.90;;;;;;4994916;28;20141;-43
2021/08/23 05:38:14;;;;;;;10.13;7.10;;;14.70;99.90;;;;;;4993898;28;20406;-42
2021/08/23 05:40:40;;;;;;;10.52;6.45;;;14.80;99.90;;;;;;4993370;28;20521;-42
2021/08/23 05:43:05;;;;;;;13.98;6.38;;;14.90;99.90;;;;;;4994758;28;20034;-42
2021/08/23 05:45:31;;;;;;;14.70;7.13;;;14.90;99.90;;;;;;4994657;28;20030;-40
2021/08/23 05:47:57;;;;;;;9.40;5.82;;;14.90;99.90;;;;;;4994706;28;20032;-45
2021/08/23 05:50:23;;;;;;;8.95;6.03;;;14.90;99.90;;;;;;4994668;28;20106;-39
2021/08/23 05:52:48;;;;;;;7.72;5.47;;;14.90;99.90;;;;;;4993747;28;20549;-40
2021/08/23 05:55:14;;;;;;;8.85;5.88;;;14.90;99.90;;;;;;4994432;28;20061;-39
2021/08/23 05:57:40;;;;;;;8.25;5.50;;;14.90;99.90;;;;;;4993687;28;20018;-44
2021/08/23 06:00:06;;;;;;;11.48;6.25;;;14.90;99.90;;;;;;4994440;28;20015;-42
2021/08/23 06:02:32;;;;;;;14.48;7.20;;;14.90;99.90;;;;;;4994377;28;20036;-42
2021/08/23 06:04:58;;;;;;;11.10;6.45;;;14.90;99.90;;;;;;4975115;28;20042;-40
2021/08/23 06:07:23;;;;;;;8.68;5.95;;;14.80;99.90;;;;;;4956712;28;20093;-41
2021/08/23 06:09:49;;;;;;;8.18;5.78;;;14.90;99.90;;;;;;5004293;28;20025;-40
2021/08/23 06:12:14;;;;;;;7.68;5.65;;;14.90;99.90;;;;;;5013790;28;20523;-41
2021/08/23 06:14:41;;;;;;;8.48;5.95;;;14.90;99.90;;;;;;5013832;28;20104;-41
2021/08/23 06:17:07;;;;;;;7.53;5.70;;;14.90;99.90;;;;;;5013783;28;20029;-43
2021/08/23 06:19:33;;;;;;;7.20;5.10;;;15.00;99.90;;;;;;5013500;28;20462;-45
2021/08/23 06:21:58;;;;;;;10.05;5.78;;;15.00;99.90;;;;;;5014994;28;20174;-41
2021/08/23 06:24:24;;;;;;;8.45;5.40;;;15.10;99.90;;;;;;5013850;28;20389;-41
2021/08/23 06:26:49;;;;;;;11.48;5.82;;;15.10;99.90;;;;;;5014730;28;20108;-46
2021/08/23 06:29:15;;;;;;;5.40;4.85;;;15.20;99.90;;;;;;5010394;28;20370;-42
2021/08/23 06:31:41;;;;;;;9.57;5.60;;;15.10;99.90;;;;;;5012796;28;20049;-43
2021/08/23 06:34:07;;;;;;;9.00;6.22;;;15.20;99.90;;;;;;5012974;28;20515;-40
2021/08/23 06:36:34;;;;;;;7.40;5.70;;;15.20;99.90;;;;;;5013015;28;20068;-42
2021/08/23 06:38:59;;;;;;;10.18;5.80;;;15.20;99.90;;;;;;5012258;28;20036;-41
2021/08/23 06:41:26;;;;;;;10.07;6.00;;;15.10;99.90;;;;;;5013152;28;20034;-40
2021/08/23 06:43:51;;;;;;;9.68;5.70;;;15.10;99.90;;;;;;5013345;28;20033;-43
2021/08/23 06:46:17;;;;;;;7.60;5.78;;;15.10;99.90;;;;;;5013104;28;20164;-40
2021/08/23 06:48:44;;;;;;;8.77;5.05;;;15.10;99.90;;;;;;5013478;28;20513;-40
2021/08/23 06:51:09;;;;;;;8.25;6.07;;;15.00;99.90;;;;;;5014398;28;20113;-43
2021/08/23 06:53:35;;;;;;;6.22;4.90;;;15.00;99.90;;;;;;5013119;28;20105;-42
2021/08/23 06:56:00;;;;;;;7.35;5.22;;;14.90;99.90;;;;;;5014361;28;20374;-40
2021/08/23 06:58:26;;;;;;;10.45;6.13;;;14.90;99.90;;;;;;5014218;28;20438;-39
2021/08/23 07:00:51;;;;;;;7.72;5.18;;;14.80;99.90;;;;;;5014224;28;20041;-41
2021/08/23 07:03:17;;;;;;;10.27;5.82;;;14.70;99.90;;;;;;5014013;28;20071;-42
2021/08/23 07:05:42;;;;;;;8.52;5.10;;;14.80;99.90;;;;;;5013878;28;20037;-44
2021/08/23 07:08:08;;;;;;;7.28;5.63;;;14.80;99.90;;;;;;5013067;28;20034;-40
2021/08/23 07:10:33;;;;;;;10.23;5.70;;;14.70;99.90;;;;;;5014012;28;20030;-41
2021/08/23 07:13:00;;;;;;;8.55;5.45;;;14.70;99.90;;;;;;5014092;28;20495;-41
2021/08/23 07:15:26;;;;;;;9.82;5.47;;;14.70;99.90;;;;;;5013952;28;20036;-44
2021/08/23 07:17:52;;;;;;;10.52;4.95;;;14.70;99.90;;;;;;5013886;28;20109;-40
2021/08/23 07:20:17;;;;;;;5.47;4.47;;;14.70;99.90;;;;;;5013883;28;20032;-40
2021/08/23 07:22:43;;;;;;;7.18;5.43;;;14.70;99.90;;;;;;5012857;28;20034;-43
2021/08/23 07:25:09;;;;;;;6.35;4.95;;;14.70;99.90;;;;;;5013804;28;20026;-40
2021/08/23 07:27:35;;;;;;;10.30;5.53;;;14.60;99.90;;;;;;5013635;28;20026;-40
2021/08/23 07:30:02;;;;;;;7.70;4.88;;;14.60;99.90;;;;;;5013838;28;20053;-40
2021/08/23 07:32:28;;;;;;;8.02;5.05;;;14.50;99.90;;;;;;5013643;28;20060;-40
2021/08/23 07:34:53;;;;;;;8.65;4.93;;;14.60;99.90;;;;;;5013676;28;20057;-41
2021/08/23 07:37:19;;;;;;;6.07;4.68;;;14.50;99.90;;;;;;5012543;28;20057;-43
2021/08/23 07:39:45;;;;;;;8.13;5.28;;;14.60;99.90;;;;;;5013530;28;20143;-42
2021/08/23 07:42:11;;;;;;;7.75;4.57;;;14.50;99.90;;;;;;5013373;28;20041;-41
2021/08/23 07:44:37;;;;;;;12.52;5.60;;;14.50;99.90;;;;;;5012742;28;20050;-40
2021/08/23 07:47:03;;;;;;;8.20;4.70;;;14.50;99.90;;;;;;5013367;28;20174;-40
2021/08/23 07:49:28;;;;;;;6.90;5.07;;;14.60;99.90;;;;;;5013303;28;20072;-40
2021/08/23 07:51:54;;;;;;;9.20;4.80;;;14.70;99.90;;;;;;5013271;28;20470;-41
2021/08/23 07:54:19;;;;;;;10.65;4.90;;;14.80;99.90;;;;;;5012366;28;20025;-42
2021/08/23 07:56:45;;;;;;;7.80;4.45;;;14.90;99.90;;;;;;5013255;28;20029;-40
2021/08/23 07:59:11;;;;;;;9.65;5.00;;;14.90;99.90;;;;;;5013240;28;20033;-40
2021/08/23 08:01:37;;;;;;;8.45;5.05;;;15.00;99.90;;;;;;5013124;28;20030;-40
2021/08/23 08:04:03;;;;;;;6.90;4.00;;;14.90;99.90;;;;;;5012933;28;20077;-41
2021/08/23 08:06:28;;;;;;;7.95;4.10;;;15.00;99.90;;;;;;5013049;28;20086;-42
2021/08/23 08:08:54;;;;;;;6.03;4.28;;;15.00;99.90;;;;;;5012090;28;20454;-41
2021/08/23 08:11:20;;;;;;;5.65;4.13;;;15.10;99.90;;;;;;5013155;28;20026;-42
2021/08/23 08:13:46;;;;;;;4.35;3.85;;;15.00;99.90;;;;;;5012956;28;20416;-41
2021/08/23 08:16:11;;;;;;;7.55;4.13;;;14.90;99.90;;;;;;5012992;28;20030;-40
2021/08/23 08:18:37;;;;;;;6.65;4.50;;;14.90;99.90;;;;;;5012988;28;20470;-42
2021/08/23 08:21:03;;;;;;;4.88;3.80;;;15.00;99.90;;;;;;5013017;28;20026;-41
2021/08/23 08:23:28;;;;;;;4.60;3.85;;;15.00;99.90;;;;;;5011823;28;20037;-40
2021/08/23 08:25:54;;;;;;;8.05;3.90;;;15.00;99.90;;;;;;5012891;28;20088;-41
2021/08/23 08:28:19;;;;;;;5.28;3.28;;;14.90;99.90;;;;;;5012914;28;20100;-43
2021/08/23 08:30:45;;;;;;;5.20;3.72;;;15.00;99.90;;;;;;5012826;28;20105;-41
2021/08/23 08:33:10;;;;;;;4.70;3.72;;;15.00;99.90;;;;;;5012879;28;20494;-43
2021/08/23 08:35:36;;;;;;;5.47;3.30;;;14.80;99.90;;;;;;5012725;28;20026;-41
2021/08/23 08:38:01;;;;;;;6.20;3.20;;;14.90;99.90;;;;;;5011792;28;20025;-45
2021/08/23 08:40:28;;;;;;;4.35;3.35;;;14.90;99.90;;;;;;5012786;28;20536;-42
2021/08/23 08:42:54;;;;;;;6.90;3.90;;;14.80;99.90;;;;;;5012765;28;20037;-43
2021/08/23 08:45:20;;;;;;;7.80;3.50;;;14.90;99.90;;;;;;5012729;28;20022;-40
2021/08/23 08:47:46;;;;;;;4.40;3.53;;;14.70;99.90;;;;;;5012674;28;20038;-40
2021/08/23 08:50:15;;;;;;;6.07;3.38;;;14.70;99.90;;;;;;5012730;28;20021;-40
2021/08/23 08:52:43;;;;;;;5.65;3.90;;;14.70;99.90;;;;;;5011464;28;20120;-40
2021/08/23 08:55:09;;;;;;;3.78;3.03;;;14.70;99.90;;;;;;5014946;28;20057;-40
2021/08/23 08:57:34;;;;;;;4.63;3.10;;;14.70;99.90;;;;;;5016529;28;20054;-40
2021/08/23 09:00:00;;;;;;;6.00;3.28;;;14.70;99.90;;;;;;5016488;28;20030;-41
2021/08/23 09:02:25;;;;;;;5.88;3.55;;;14.80;99.90;;;;;;5016533;28;20095;-40
2021/08/23 09:04:51;;;;;;;4.78;3.10;;;14.80;99.90;;;;;;5016247;28;20400;-40
2021/08/23 09:07:16;;;;;;;6.88;3.13;;;14.90;99.90;;;;;;5015292;28;20079;-41
2021/08/23 09:09:42;;;;;;;4.50;3.17;;;14.90;99.90;;;;;;5016305;28;20466;-40
2021/08/23 09:12:10;;;;;;;5.05;2.75;;;14.90;99.90;;;;;;5016316;28;20022;-44
2021/08/23 09:14:53;;;;;;;4.72;3.17;;;14.90;99.90;;;;;;5016157;28;20555;-41
2021/08/23 09:17:26;;;;;;;6.55;2.67;;;14.80;99.90;;;;;;5016205;28;20025;-45
2021/08/23 09:20:03;;;;;;;4.65;2.60;;;14.90;99.90;;;;;;5016040;28;20037;-44
2021/08/23 09:22:29;;;;;;;4.40;3.03;;;14.80;99.90;;;;;;5015150;28;20053;-43
2021/08/23 09:24:54;;;;;;;4.25;3.08;;;14.80;99.90;;;;;;5016218;28;20030;-41
2021/08/23 09:27:20;;;;;;;4.40;3.10;;;14.80;99.90;;;;;;5015980;28;20030;-42
2021/08/23 09:30:00;;;;;;;3.67;2.70;;;14.70;99.90;;;;;;5015870;28;20099;-42
2021/08/23 09:32:27;;;;;;;5.38;3.30;;;14.60;99.90;;;;;;5015872;28;20461;-41
2021/08/23 09:34:52;;;;;;;4.70;2.85;;;14.60;99.90;;;;;;5015763;28;20026;-43
2021/08/23 09:37:21;;;;;;;3.30;2.80;;;14.70;99.90;;;;;;5014894;28;20105;-42
2021/08/23 09:39:46;;;;;;;5.53;3.05;;;14.70;99.90;;;;;;5015751;28;20025;-41
2021/08/23 09:42:14;;;;;;;2.33;2.13;;;14.80;99.90;;;;;;5016016;28;20029;-41
2021/08/23 09:44:41;;;;;;;5.10;2.88;;;15.00;99.90;;;;;;5015543;28;20053;-42
2021/08/23 09:47:07;;;;;;;4.85;2.78;;;15.00;99.90;;;;;;5015589;28;20076;-42
2021/08/23 09:49:37;;;;;;;3.00;2.13;;;15.00;99.90;;;;;;5015564;28;20101;-42
2021/08/23 09:52:04;;;;;;;4.35;2.35;;;15.00;99.90;;;;;;5015564;28;20462;-41
2021/08/23 09:54:29;;;;;;;6.15;2.55;;;15.00;99.90;;;;;;5014824;28;20037;-42
2021/08/23 09:56:56;;;;;;;5.03;2.35;;;15.10;99.90;;;;;;5015383;28;20030;-41
2021/08/23 09:59:24;;;;;;;3.42;2.53;;;15.10;99.90;;;;;;5015334;28;20521;-41
2021/08/23 10:01:52;;;;;;;4.18;2.28;;;15.10;99.90;;;;;;5015390;28;20045;-45
2021/08/23 10:04:19;;;;;;;5.47;2.30;;;15.20;99.90;;;;;;5015252;28;20054;-45
2021/08/23 10:06:48;;;;;;;2.83;2.47;;;15.20;99.90;;;;;;5014221;28;20053;-41
2021/08/23 10:09:22;;;;;;;5.57;2.38;;;15.20;99.90;;;;;;5014332;28;20022;-40
2021/08/23 10:11:53;;;;;;;8.57;2.88;;;15.20;99.90;;;;;;5014976;28;20543;-40
2021/08/23 10:14:19;;;;;;;2.75;2.20;;;15.00;99.90;;;;;;5015154;28;20022;-45
2021/08/23 10:16:46;;;;;;;3.60;2.17;;;14.90;99.90;;;;;;5015030;28;20025;-42
2021/08/23 10:19:12;;;;;;;3.75;2.15;;;14.90;99.90;;;;;;5015102;28;20030;-40
2021/08/23 10:21:41;;;;;;;3.78;2.33;;;14.80;99.90;;;;;;5014972;28;20033;-45
2021/08/23 10:24:07;;;;;;;3.65;2.45;;;14.80;99.90;;;;;;5014153;28;20022;-47
2021/08/23 10:26:42;;;;;;;3.17;2.20;;;14.80;99.90;;;;;;5014695;28;20497;-43
2021/08/23 10:29:13;;;;;;;3.85;2.58;;;14.90;99.90;;;;;;5014895;28;20112;-40
2021/08/23 10:31:41;;;;;;;5.63;2.35;;;14.90;99.90;;;;;;5014817;28;20026;-41
2021/08/23 10:34:15;;;;;;;2.60;2.10;;;14.90;99.90;;;;;;5014898;28;20109;-41
2021/08/23 10:36:42;;;;;;;3.85;2.08;;;15.20;99.90;;;;;;5014668;28;20026;-41
2021/08/23 10:39:08;;;;;;;3.03;2.03;;;15.20;99.90;;;;;;5013763;28;20077;-43
2021/08/23 10:41:34;;;;;;;3.65;2.35;;;15.30;99.90;;;;;;5014666;28;20382;-43
2021/08/23 10:44:03;;;;;;;2.67;2.25;;;15.50;99.90;;;;;;5014555;28;20523;-42
2021/08/23 10:46:33;;;;;;;4.68;2.03;;;15.60;99.90;;;;;;5014550;28;20098;-44
2021/08/23 10:49:04;;;;;;;4.53;2.38;;;15.80;99.90;;;;;;5014440;28;20182;-41
2021/08/23 10:51:36;;;;;;;3.78;2.17;;;16.00;99.90;;;;;;5014387;28;20414;-41
2021/08/23 10:54:18;;;;;;;2.80;1.95;;;16.10;99.90;;;;;;5013422;28;20496;-40
2021/08/23 10:56:44;;;;;;;2.60;2.17;;;16.20;99.90;;;;;;5014339;28;20108;-43
2021/08/23 10:59:18;;;;;;;3.65;2.28;;;16.20;99.90;;;;;;5014333;28;20512;-44
2021/08/23 11:01:56;;;;;;;3.00;1.77;;;16.30;99.90;;;;;;5014103;28;20022;-42
2021/08/23 11:04:32;;;;;;;3.22;1.92;;;16.40;99.90;;;;;;5014095;28;20128;-41
2021/08/23 11:07:00;;;;;;;2.42;1.95;;;16.50;99.90;;;;;;5014095;28;20062;-40
2021/08/23 11:09:43;;;;;;;5.25;2.67;;;16.60;99.90;;;;;;5013258;28;20030;-43
2021/08/23 11:12:15;;;;;;;2.67;1.73;;;16.70;99.90;;;;;;5014054;28;20025;-44
2021/08/23 11:14:47;;;;;;;2.10;1.65;;;16.80;99.90;;;;;;5014022;28;20018;-40
2021/08/23 11:17:23;;;;;;;2.45;1.77;;;16.80;99.90;;;;;;5013919;28;20046;-41
2021/08/23 11:19:50;;;;;;;4.03;1.80;;;16.70;99.90;;;;;;5013859;28;20025;-47
2021/08/23 11:22:16;;;;;;;3.25;2.00;;;16.80;99.90;;;;;;5013021;28;20029;-41
2021/08/23 11:24:41;;;;;;;2.33;2.03;;;16.60;99.90;;;;;;5013868;28;20029;-41
2021/08/23 11:27:07;;;;;;;2.25;1.55;;;16.70;99.90;;;;;;5013662;28;20033;-45
2021/08/23 11:29:37;;;;;;;3.78;1.98;;;16.70;99.90;;;;;;5013826;28;20030;-41
2021/08/23 11:32:08;;;;;;;3.40;1.98;;;16.70;99.90;;;;;;5013711;28;20025;-44
2021/08/23 11:34:34;;;;;;;2.17;1.80;;;16.50;99.90;;;;;;5013804;28;20399;-43
2021/08/23 11:37:02;;;;;;;2.33;1.58;;;16.50;99.90;;;;;;5013594;28;20034;-40
2021/08/23 11:39:29;;;;;;;3.35;1.60;;;16.50;99.90;;;;;;5011670;28;20385;-40
2021/08/23 11:42:04;;;;;;;1.85;1.55;;;16.70;99.90;;;;;;5013484;28;20527;-41
2021/08/23 11:44:29;;;;;;;3.35;1.90;;;16.70;99.90;;;;;;5013550;28;20061;-44
2021/08/23 11:47:00;;;;;;;2.38;1.83;;;16.70;99.90;;;;;;5013344;28;20060;-41
2021/08/23 11:49:30;;;;;;;4.80;2.05;;;16.70;99.90;;;;;;5013522;28;20022;-41
2021/08/23 11:51:56;;;;;;;3.47;1.92;;;16.60;99.90;;;;;;5013230;28;20041;-43
2021/08/23 11:54:22;;;;;;;3.00;1.80;;;16.70;99.90;;;;;;5012489;28;20370;-46
2021/08/23 11:56:48;;;;;;;3.92;2.00;;;16.70;99.90;;;;;;5013277;28;20033;-44
2021/08/23 11:59:13;;;;;;;4.82;1.70;;;16.90;99.90;;;;;;5013378;28;20038;-41
2021/08/23 12:01:39;;;;;;;2.00;1.63;;;16.90;99.90;;;;;;5013293;28;20026;-41
2021/08/23 12:04:05;;;;;;;2.80;2.10;;;16.90;99.90;;;;;;5012948;28;20441;-41
2021/08/23 12:06:34;;;;;;;3.15;2.13;;;16.90;99.90;;;;;;5012991;28;20109;-42
2021/08/23 12:09:01;;;;;;;3.80;2.28;;;16.80;99.90;;;;;;5012174;28;20316;-43
2021/08/23 12:11:27;;;;;;;4.28;1.92;;;16.80;99.90;;;;;;5013242;28;20025;-41
2021/08/23 12:13:53;;;;;;;3.67;1.95;;;16.80;99.90;;;;;;5013041;28;20018;-43
2021/08/23 12:16:31;;;;;;;2.80;2.08;;;16.70;99.90;;;;;;5013094;28;20025;-42
2021/08/23 12:19:06;;;;;;;4.53;2.30;;;16.70;99.90;;;;;;5012836;28;20026;-43
2021/08/23 12:21:33;;;;;;;2.38;1.65;;;16.80;99.90;;;;;;5012958;28;20481;-40
2021/08/23 12:24:05;;;;;;;2.53;1.60;;;16.80;99.90;;;;;;5012003;28;20030;-43
2021/08/23 12:26:38;;;;;;;3.22;2.05;;;16.80;99.90;;;;;;5012883;28;20034;-41
2021/08/23 12:29:16;;;;;;;3.22;1.77;;;16.90;99.90;;;;;;5012068;28;20414;-40
2021/08/23 12:31:53;;;;;;;6.03;2.13;;;17.00;99.90;;;;;;5012529;28;20026;-41
2021/08/23 12:34:21;;;;;;;2.13;1.70;;;17.10;99.90;;;;;;5012846;28;20496;-41
2021/08/23 12:36:48;;;;;;;2.35;1.80;;;17.30;99.90;;;;;;5012890;28;20057;-44